createdAt,value
2022-11-05T00:02:49.772Z,99807.60
2022-11-05T00:05:42.457Z,99813.20
2022-11-05T00:08:35.921Z,99818.60
2022-11-05T00:11:17.899Z,99817.60
2022-11-05T00:14:12.530Z,99815.20
2022-11-05T00:16:49.119Z,99811.60
2022-11-05T00:19:24.838Z,99809.80
2022-11-05T00:22:18.360Z,99809.60
2022-11-05T00:25:11.242Z,99807.20
2022-11-05T00:27:51.703Z,99810.40
2022-11-05T00:30:29.527Z,99816.00
2022-11-05T00:33:10.143Z,99817.40
2022-11-05T00:35:46.834Z,99808.00
2022-11-05T00:38:23.093Z,99810.80
2022-11-05T00:40:59.364Z,99807.60
2022-11-05T00:43:52.831Z,99810.00
2022-11-05T00:46:29.371Z,99817.20
2022-11-05T00:49:24.421Z,99815.00
2022-11-05T00:52:19.762Z,99806.20
2022-11-05T00:54:56.076Z,99806.40
2022-11-05T00:57:32.632Z,99809.60
2022-11-05T01:00:13.135Z,99814.00
2022-11-05T01:02:50.509Z,99811.00
2022-11-05T01:05:27.049Z,99810.80
2022-11-05T01:08:03.311Z,99810.00
2022-11-05T01:10:41.450Z,99813.40
2022-11-05T01:13:19.842Z,99817.20
2022-11-05T01:15:57.023Z,99819.20
2022-11-05T01:18:33.842Z,99818.40
2022-11-05T01:21:18.215Z,99816.00
2022-11-05T01:23:54.972Z,99814.40
2022-11-05T01:26:30.960Z,99813.60
2022-11-05T01:29:06.544Z,99816.60
2022-11-05T01:31:43.592Z,99820.20
2022-11-05T01:34:20.193Z,99819.80
2022-11-05T01:36:56.283Z,99819.60
2022-11-05T01:39:32.644Z,99816.80
2022-11-05T01:42:11.827Z,99822.20
2022-11-05T01:45:21.991Z,99826.80
2022-11-05T01:48:07.560Z,99830.40
2022-11-05T01:50:55.892Z,99837.20
2022-11-05T01:53:36.400Z,99837.40
2022-11-05T01:56:21.121Z,99837.20
2022-11-05T01:59:02.857Z,99837.40
2022-11-05T02:01:38.995Z,99838.80
2022-11-05T02:04:28.134Z,99843.00
2022-11-05T02:07:05.061Z,99849.00
2022-11-05T02:09:51.338Z,99847.20
2022-11-05T02:12:29.239Z,99848.00
2022-11-05T02:15:06.165Z,99847.20
2022-11-05T02:18:00.582Z,99851.00
2022-11-05T02:20:59.428Z,99852.60
2022-11-05T02:24:07.332Z,99853.00
2022-11-05T02:27:15.462Z,99852.40
2022-11-05T02:30:26.189Z,99856.20
2022-11-05T02:33:31.117Z,99856.80
2022-11-05T02:36:30.561Z,99860.00
2022-11-05T02:39:38.756Z,99860.80
2022-11-05T02:42:30.751Z,99865.00
2022-11-05T02:45:21.848Z,99866.00
2022-11-05T02:48:16.025Z,99863.00
2022-11-05T02:51:01.852Z,99866.40
2022-11-05T02:53:47.824Z,99869.60
2022-11-05T02:56:33.668Z,99874.40
2022-11-05T02:59:09.491Z,99883.20
2022-11-05T03:01:48.806Z,99891.40
2022-11-05T03:04:27.888Z,99895.80
2022-11-05T03:10:35.463Z,99896.00
2022-11-05T03:13:21.737Z,99895.60
2022-11-05T03:16:04.906Z,99897.40
2022-11-05T03:18:53.338Z,99901.60
2022-11-05T03:21:40.567Z,99900.80
2022-11-05T03:24:23.064Z,99908.20
2022-11-05T03:27:07.820Z,99912.20
2022-11-05T03:29:49.283Z,99915.00
2022-11-05T03:32:28.130Z,99917.20
2022-11-05T03:35:11.361Z,99916.80
2022-11-05T03:37:56.089Z,99919.20
2022-11-05T03:40:35.952Z,99926.80
2022-11-05T03:43:16.293Z,99933.20
2022-11-05T03:46:02.940Z,99933.20
2022-11-05T03:48:47.916Z,99934.20
2022-11-05T03:51:38.013Z,99937.40
2022-11-05T03:54:16.135Z,99939.60
2022-11-05T03:57:04.339Z,99938.80
2022-11-05T03:59:49.335Z,99937.20
2022-11-05T04:02:29.504Z,99935.20
2022-11-05T04:05:06.229Z,99936.80
2022-11-05T04:07:59.577Z,99933.60
2022-11-05T04:10:52.403Z,99937.20
2022-11-05T04:13:28.562Z,99937.20
2022-11-05T04:16:29.582Z,99940.80
2022-11-05T04:19:06.236Z,99934.20
2022-11-05T04:21:59.013Z,99937.00
2022-11-05T04:24:35.629Z,99943.60
2022-11-05T04:27:12.544Z,99942.00
2022-11-05T04:30:05.677Z,99946.00
2022-11-05T04:32:42.234Z,99943.80
2022-11-05T04:35:19.325Z,99945.60
2022-11-05T04:37:55.980Z,99952.00
2022-11-05T04:40:33.472Z,99954.20
2022-11-05T04:43:14.838Z,99951.00
2022-11-05T04:45:51.875Z,99955.80
2022-11-05T04:48:28.529Z,99951.20
2022-11-05T04:51:04.337Z,99955.20
2022-11-05T04:53:43.989Z,99955.00
2022-11-05T04:56:26.723Z,99953.20
2022-11-05T04:59:03.198Z,99953.20
2022-11-05T05:01:39.406Z,99955.00
2022-11-05T05:04:16.102Z,99958.80
2022-11-05T05:06:53.122Z,99961.60
2022-11-05T05:09:30.241Z,99965.20
2022-11-05T05:12:07.129Z,99968.80
2022-11-05T05:14:43.752Z,99970.80
2022-11-05T05:17:20.822Z,99973.20
2022-11-05T05:20:13.800Z,99977.20
2022-11-05T05:22:56.292Z,99986.20
2022-11-05T05:25:32.548Z,99993.20
2022-11-05T05:28:09.681Z,99996.20
2022-11-05T05:30:46.331Z,99997.40
2022-11-05T05:33:23.261Z,100001.00
2022-11-05T05:36:04.671Z,100001.00
2022-11-05T05:38:44.595Z,100008.20
2022-11-05T05:41:21.262Z,100018.60
2022-11-05T05:43:56.945Z,100020.40
2022-11-05T05:46:32.837Z,100028.60
2022-11-05T05:49:12.311Z,100032.40
2022-11-05T05:51:51.331Z,100030.40
2022-11-05T05:54:32.100Z,100036.20
2022-11-05T05:57:12.258Z,100036.80
2022-11-05T05:59:48.796Z,100034.20
2022-11-05T06:02:26.464Z,100037.80
2022-11-05T06:05:02.199Z,100040.40
2022-11-05T06:07:38.647Z,100039.20
2022-11-05T06:10:17.313Z,100044.20
2022-11-05T06:12:53.605Z,100046.60
2022-11-05T06:15:35.545Z,100049.20
2022-11-05T06:18:13.083Z,100045.00
2022-11-05T06:20:50.143Z,100048.40
2022-11-05T06:23:26.532Z,100051.40
2022-11-05T06:26:06.722Z,100060.20
2022-11-05T06:28:43.356Z,100064.60
2022-11-05T06:31:19.373Z,100065.60
2022-11-05T06:33:55.137Z,100062.60
2022-11-05T06:36:31.448Z,100062.60
2022-11-05T06:39:08.668Z,100065.40
2022-11-05T06:42:11.979Z,100070.60
2022-11-05T06:44:42.371Z,100073.40
2022-11-05T06:47:18.919Z,100074.40
2022-11-05T06:49:55.153Z,100077.00
2022-11-05T06:52:31.401Z,100082.80
2022-11-05T06:55:08.494Z,100087.00
2022-11-05T06:57:46.517Z,100094.40
2022-11-05T07:00:26.454Z,100099.80
2022-11-05T07:03:08.317Z,100106.60
2022-11-05T07:05:49.446Z,100110.60
2022-11-05T07:08:26.304Z,100113.40
2022-11-05T07:11:03.004Z,100113.00
2022-11-05T07:13:39.016Z,100116.80
2022-11-05T07:16:16.205Z,100117.00
2022-11-05T07:18:52.945Z,100119.80
2022-11-05T07:21:29.438Z,100121.80
2022-11-05T07:24:06.993Z,100123.20
2022-11-05T07:26:43.089Z,100122.40
2022-11-05T07:29:19.752Z,100131.20
2022-11-05T07:31:56.291Z,100135.60
2022-11-05T07:34:32.673Z,100139.80
2022-11-05T07:37:09.613Z,100144.80
2022-11-05T07:39:46.411Z,100149.80
2022-11-05T07:42:23.006Z,100154.20
2022-11-05T07:44:59.335Z,100162.60
2022-11-05T07:47:35.241Z,100160.00
2022-11-05T07:50:14.283Z,100165.80
2022-11-05T07:52:50.606Z,100167.80
2022-11-05T07:55:27.082Z,100172.00
2022-11-05T07:58:04.232Z,100178.40
2022-11-05T08:00:41.045Z,100178.40
2022-11-05T08:03:20.936Z,100184.20
2022-11-05T08:05:57.633Z,100187.60
2022-11-05T08:08:34.491Z,100188.00
2022-11-05T08:11:15.569Z,100190.80
2022-11-05T08:13:52.487Z,100192.40
2022-11-05T08:16:29.607Z,100193.20
2022-11-05T08:19:06.011Z,100195.20
2022-11-05T08:21:42.193Z,100197.60
2022-11-05T08:24:19.973Z,100210.20
2022-11-05T08:26:56.840Z,100209.00
2022-11-05T08:29:33.350Z,100210.80
2022-11-05T08:32:09.734Z,100214.80
2022-11-05T08:34:46.869Z,100217.40
2022-11-05T08:37:24.618Z,100217.80
2022-11-05T08:40:01.193Z,100224.40
2022-11-05T08:42:37.467Z,100224.00
2022-11-05T08:45:17.356Z,100223.00
2022-11-05T08:47:53.407Z,100216.40
2022-11-05T08:50:30.481Z,100217.80
2022-11-05T08:53:07.078Z,100220.60
2022-11-05T08:55:42.649Z,100222.00
2022-11-05T08:58:21.046Z,100229.20
2022-11-05T09:01:03.459Z,100233.00
2022-11-05T09:03:41.340Z,100237.80
2022-11-05T09:06:17.909Z,100238.20
2022-11-05T09:08:54.475Z,100241.20
2022-11-05T09:11:49.923Z,100242.20
2022-11-05T09:14:27.913Z,100248.80
2022-11-05T09:17:03.944Z,100251.00
2022-11-05T09:19:40.680Z,100257.00
2022-11-05T09:22:16.593Z,100258.00
2022-11-05T09:24:52.976Z,100262.20
2022-11-05T09:27:29.327Z,100266.60
2022-11-05T09:30:04.993Z,100270.00
2022-11-05T09:32:40.961Z,100266.40
2022-11-05T09:35:18.234Z,100261.80
2022-11-05T09:37:59.725Z,100264.40
2022-11-05T09:40:44.695Z,100263.80
2022-11-05T09:43:31.387Z,100265.80
2022-11-05T09:46:16.019Z,100262.00
2022-11-05T09:48:58.014Z,100265.80
2022-11-05T09:51:36.565Z,100267.20
2022-11-05T09:54:16.736Z,100265.40
2022-11-05T09:56:54.228Z,100269.40
2022-11-05T09:59:38.427Z,100273.00
2022-11-05T10:02:22.971Z,100270.40
2022-11-05T10:05:09.405Z,100273.60
2022-11-05T10:07:51.549Z,100273.60
2022-11-05T10:10:45.743Z,100275.00
2022-11-05T10:13:31.897Z,100280.20
2022-11-05T10:16:17.988Z,100279.20
2022-11-05T10:19:00.700Z,100282.00
2022-11-05T10:22:04.952Z,100282.40
2022-11-05T10:24:35.574Z,100284.20
2022-11-05T10:27:16.498Z,100287.00
2022-11-05T10:29:53.641Z,100285.00
2022-11-05T10:32:38.216Z,100284.40
2022-11-05T10:35:19.952Z,100286.20
2022-11-05T10:37:59.274Z,100289.60
2022-11-05T10:40:52.506Z,100291.20
2022-11-05T10:43:39.488Z,100289.80
2022-11-05T10:46:30.774Z,100295.60
2022-11-05T10:49:36.933Z,100292.40
2022-11-05T10:52:28.337Z,100293.20
2022-11-05T10:55:13.021Z,100293.40
2022-11-05T10:57:50.582Z,100293.40
2022-11-05T11:00:34.266Z,100294.80
2022-11-05T11:03:38.152Z,100295.80
2022-11-05T11:06:27.609Z,100293.20
2022-11-05T11:09:08.190Z,100288.00
2022-11-05T11:11:48.200Z,100286.40
2022-11-05T11:14:28.527Z,100289.80
2022-11-05T11:17:29.829Z,100293.60
2022-11-05T11:23:16.647Z,100290.60
2022-11-05T11:26:02.437Z,100293.20
2022-11-05T11:28:45.774Z,100295.00
2022-11-05T11:31:26.154Z,100291.80
2022-11-05T11:34:07.743Z,100294.60
2022-11-05T11:36:58.429Z,100296.80
2022-11-05T11:39:36.899Z,100293.00
2022-11-05T11:42:22.351Z,100294.60
2022-11-05T11:45:00.486Z,100288.80
2022-11-05T11:47:37.187Z,100288.00
2022-11-05T11:50:48.499Z,100290.60
2022-11-05T11:53:38.297Z,100288.00
2022-11-05T11:56:25.668Z,100289.20
2022-11-05T11:59:12.574Z,100292.60
2022-11-05T12:02:36.531Z,100291.40
2022-11-05T12:05:40.040Z,100290.80
2022-11-05T12:08:45.502Z,100294.40
2022-11-05T12:11:32.735Z,100299.20
2022-11-05T12:14:28.724Z,100297.80
2022-11-05T12:17:28.023Z,100301.60
2022-11-05T12:20:32.246Z,100297.20
2022-11-05T12:26:36.385Z,100296.00
2022-11-05T12:29:37.130Z,100296.20
2022-11-05T12:33:08.180Z,100294.80
2022-11-05T12:39:44.445Z,100293.20
2022-11-05T12:42:43.569Z,100288.00
2022-11-05T12:45:39.179Z,100291.40
2022-11-05T12:48:44.873Z,100288.40
2022-11-05T12:51:37.985Z,100290.00
2022-11-05T12:54:29.878Z,100291.80
2022-11-05T12:57:13.968Z,100289.80
2022-11-05T13:00:00.823Z,100289.00
2022-11-05T13:02:49.006Z,100285.60
2022-11-05T13:05:37.377Z,100288.60
2022-11-05T13:08:22.923Z,100292.00
2022-11-05T13:11:05.673Z,100289.60
2022-11-05T13:13:48.920Z,100291.60
2022-11-05T13:16:32.485Z,100288.80
2022-11-05T13:19:20.118Z,100288.00
2022-11-05T13:22:08.080Z,100284.20
2022-11-05T13:24:52.738Z,100286.40
2022-11-05T13:27:51.743Z,100289.40
2022-11-05T13:30:38.393Z,100290.60
2022-11-05T13:33:22.002Z,100294.00
2022-11-05T13:36:26.922Z,100296.00
2022-11-05T13:39:14.592Z,100288.20
2022-11-05T13:42:33.234Z,100284.40
2022-11-05T13:49:12.725Z,100291.00
2022-11-05T13:52:06.846Z,100285.00
2022-11-05T13:55:28.594Z,100291.80
2022-11-05T13:58:39.386Z,100295.20
2022-11-05T14:01:38.599Z,100293.80
2022-11-05T14:04:45.949Z,100302.20
2022-11-05T14:07:28.000Z,100308.00
2022-11-05T14:10:24.087Z,100309.20
2022-11-05T14:13:07.645Z,100312.80
2022-11-05T14:15:55.542Z,100313.00
2022-11-05T14:18:47.171Z,100314.80
2022-11-05T14:21:52.140Z,100317.20
2022-11-05T14:24:47.436Z,100318.00
2022-11-05T14:27:55.590Z,100318.80
2022-11-05T14:30:49.997Z,100318.00
2022-11-05T14:33:42.665Z,100315.80
2022-11-05T14:36:47.350Z,100316.60
2022-11-05T14:39:31.788Z,100320.40
2022-11-05T14:42:18.762Z,100327.00
2022-11-05T14:45:31.527Z,100335.20
2022-11-05T14:48:25.846Z,100338.20
2022-11-05T14:51:02.227Z,100339.40
2022-11-05T14:53:43.210Z,100341.60
2022-11-05T14:56:23.710Z,100337.80
2022-11-05T14:59:51.341Z,100345.00
2022-11-05T15:02:35.726Z,100341.80
2022-11-05T15:05:51.926Z,100348.60
2022-11-05T15:09:06.496Z,100348.40
2022-11-05T15:11:50.963Z,100346.40
2022-11-05T15:14:35.316Z,100350.20
2022-11-05T15:17:30.250Z,100353.40
2022-11-05T15:20:20.002Z,100360.40
2022-11-05T15:23:02.995Z,100365.60
2022-11-05T15:25:53.432Z,100365.00
2022-11-05T15:28:39.836Z,100369.80
2022-11-05T15:31:36.311Z,100369.00
2022-11-05T15:34:28.822Z,100372.20
2022-11-05T15:37:21.642Z,100376.60
2022-11-05T15:39:58.496Z,100383.60
2022-11-05T15:42:35.848Z,100381.60
2022-11-05T15:45:26.505Z,100385.80
2022-11-05T15:48:03.241Z,100388.80
2022-11-05T15:50:39.569Z,100390.60
2022-11-05T15:54:28.600Z,100393.00
2022-11-05T15:57:00.889Z,100391.20
2022-11-05T15:59:37.957Z,100389.60
2022-11-05T16:02:53.154Z,100394.60
2022-11-05T16:05:31.852Z,100395.60
2022-11-05T16:08:09.652Z,100395.80
2022-11-05T16:10:51.023Z,100399.20
2022-11-05T16:13:38.479Z,100400.20
2022-11-05T16:16:39.202Z,100402.80
2022-11-05T16:19:47.794Z,100408.60
2022-11-05T16:22:25.560Z,100412.40
2022-11-05T16:25:03.690Z,100413.40
2022-11-05T16:27:40.312Z,100416.80
2022-11-05T16:30:33.848Z,100421.20
2022-11-05T16:33:18.870Z,100425.60
2022-11-05T16:35:55.935Z,100429.40
2022-11-05T16:38:32.937Z,100430.00
2022-11-05T16:41:15.350Z,100431.80
2022-11-05T16:43:59.787Z,100434.20
2022-11-05T16:46:38.196Z,100432.60
2022-11-05T16:49:15.627Z,100431.20
2022-11-05T16:51:51.549Z,100437.20
2022-11-05T16:54:28.036Z,100440.60
2022-11-05T16:57:05.144Z,100449.20
2022-11-05T16:59:40.613Z,100450.60
2022-11-05T17:02:19.274Z,100451.80
2022-11-05T17:04:55.519Z,100452.80
2022-11-05T17:07:37.092Z,100451.00
2022-11-05T17:10:16.603Z,100454.20
2022-11-05T17:12:53.201Z,100457.00
2022-11-05T17:15:35.755Z,100459.40
2022-11-05T17:18:18.195Z,100460.40
2022-11-05T17:20:58.556Z,100468.20
2022-11-05T17:23:36.862Z,100477.40
2022-11-05T17:26:16.136Z,100478.20
2022-11-05T17:28:52.971Z,100482.20
2022-11-05T17:31:29.400Z,100488.80
2022-11-05T17:34:06.438Z,100492.80
2022-11-05T17:36:43.233Z,100497.40
2022-11-05T17:39:20.628Z,100492.80
2022-11-05T17:41:56.426Z,100495.00
2022-11-05T17:44:32.482Z,100494.60
2022-11-05T17:47:09.086Z,100499.20
2022-11-05T17:49:45.908Z,100501.20
2022-11-05T17:52:22.513Z,100504.20
2022-11-05T17:54:59.792Z,100510.00
2022-11-05T17:57:36.073Z,100511.80
2022-11-05T18:00:18.823Z,100510.40
2022-11-05T18:02:55.183Z,100512.20
2022-11-05T18:05:31.890Z,100513.00
2022-11-05T18:08:08.457Z,100518.20
2022-11-05T18:10:46.131Z,100520.00
2022-11-05T18:13:22.794Z,100521.40
2022-11-05T18:16:00.277Z,100526.60
2022-11-05T18:18:36.598Z,100525.60
2022-11-05T18:21:13.686Z,100526.40
2022-11-05T18:23:49.700Z,100530.80
2022-11-05T18:26:25.828Z,100533.60
2022-11-05T18:29:03.886Z,100536.40
2022-11-05T18:31:38.978Z,100533.40
2022-11-05T18:34:15.575Z,100534.00
2022-11-05T18:36:56.153Z,100538.60
2022-11-05T18:39:33.038Z,100538.40
2022-11-05T18:42:09.891Z,100536.60
2022-11-05T18:44:46.193Z,100535.40
2022-11-05T18:47:23.049Z,100536.80
2022-11-05T18:49:58.844Z,100543.80
2022-11-05T18:52:36.229Z,100551.60
2022-11-05T18:55:16.028Z,100551.00
2022-11-05T18:57:52.645Z,100548.40
2022-11-05T19:00:29.721Z,100549.40
2022-11-05T19:03:05.962Z,100552.20
2022-11-05T19:05:42.426Z,100555.20
2022-11-05T19:08:18.585Z,100559.80
2022-11-05T19:10:56.698Z,100567.00
2022-11-05T19:13:32.651Z,100567.40
2022-11-05T19:16:10.359Z,100569.40
2022-11-05T19:18:47.510Z,100578.00
2022-11-05T19:21:26.286Z,100577.40
2022-11-05T19:24:05.327Z,100588.20
2022-11-05T19:26:42.163Z,100588.40
2022-11-05T19:29:18.810Z,100589.60
2022-11-05T19:31:55.815Z,100590.60
2022-11-05T19:34:32.393Z,100598.00
2022-11-05T19:37:08.587Z,100601.00
2022-11-05T19:39:45.953Z,100601.20
2022-11-05T19:42:22.712Z,100601.00
2022-11-05T19:45:16.604Z,100599.60
2022-11-05T19:47:55.470Z,100605.60
2022-11-05T19:50:31.337Z,100608.60
2022-11-05T19:53:08.121Z,100612.00
2022-11-05T19:55:47.738Z,100613.60
2022-11-05T19:58:24.075Z,100614.60
2022-11-05T20:01:03.027Z,100617.60
2022-11-05T20:03:39.270Z,100626.20
2022-11-05T20:06:20.495Z,100630.80
2022-11-05T20:09:20.516Z,100634.00
2022-11-05T20:11:56.923Z,100635.00
2022-11-05T20:14:33.502Z,100639.20
2022-11-05T20:17:09.550Z,100646.60
2022-11-05T20:19:46.293Z,100650.00
2022-11-05T20:22:22.748Z,100651.20
2022-11-05T20:24:58.611Z,100650.40
2022-11-05T20:27:35.167Z,100643.20
2022-11-05T20:30:17.461Z,100644.20
2022-11-05T20:32:58.683Z,100646.20
2022-11-05T20:35:36.285Z,100650.40
2022-11-05T20:38:13.488Z,100660.20
2022-11-05T20:40:50.448Z,100660.80
2022-11-05T20:43:30.280Z,100666.20
2022-11-05T20:46:07.636Z,100667.20
2022-11-05T20:48:44.525Z,100669.60
2022-11-05T20:51:24.452Z,100671.60
2022-11-05T20:54:04.140Z,100672.80
2022-11-05T20:56:42.750Z,100677.20
2022-11-05T20:59:19.816Z,100682.80
2022-11-05T21:01:56.823Z,100684.80
2022-11-05T21:04:33.322Z,100686.40
2022-11-05T21:07:09.896Z,100690.40
2022-11-05T21:09:46.812Z,100687.20
2022-11-05T21:12:27.171Z,100686.00
2022-11-05T21:15:04.008Z,100687.80
2022-11-05T21:17:41.258Z,100688.00
2022-11-05T21:20:18.580Z,100690.00
2022-11-05T21:22:54.778Z,100691.80
2022-11-05T21:25:32.055Z,100692.00
2022-11-05T21:28:11.701Z,100694.80
2022-11-05T21:30:49.545Z,100695.80
2022-11-05T21:33:27.240Z,100696.80
2022-11-05T21:36:09.371Z,100699.80
2022-11-05T21:38:45.845Z,100698.20
2022-11-05T21:41:23.929Z,100704.40
2022-11-05T21:44:01.239Z,100702.80
2022-11-05T21:46:40.057Z,100706.00
2022-11-05T21:49:16.561Z,100709.80
2022-11-05T21:52:09.079Z,100708.20
2022-11-05T21:55:02.399Z,100713.00
2022-11-05T21:57:55.293Z,100713.60
2022-11-05T22:00:32.447Z,100720.00
2022-11-05T22:03:09.117Z,100722.40
2022-11-05T22:05:46.547Z,100722.80
2022-11-05T22:08:25.898Z,100725.00
2022-11-05T22:11:05.604Z,100724.40
2022-11-05T22:13:42.590Z,100728.80
2022-11-05T22:16:19.406Z,100734.80
2022-11-05T22:18:58.423Z,100735.20
2022-11-05T22:21:35.073Z,100734.00
2022-11-05T22:24:13.469Z,100735.40
2022-11-05T22:26:49.897Z,100735.60
2022-11-05T22:29:26.510Z,100735.40
2022-11-05T22:32:03.032Z,100734.40
2022-11-05T22:34:39.439Z,100734.80
2022-11-05T22:37:17.039Z,100733.80
2022-11-05T22:39:53.760Z,100735.00
2022-11-05T22:42:29.561Z,100739.00
2022-11-05T22:45:05.221Z,100738.60
2022-11-05T22:47:42.891Z,100738.00
2022-11-05T22:50:19.254Z,100737.80
2022-11-05T22:52:55.228Z,100739.80
2022-11-05T22:55:31.183Z,100744.00
2022-11-05T22:58:08.080Z,100740.40
2022-11-05T23:00:45.260Z,100742.00
2022-11-05T23:03:21.940Z,100739.80
2022-11-05T23:06:06.878Z,100740.20
2022-11-05T23:08:59.861Z,100745.80
2022-11-05T23:11:40.841Z,100749.40
2022-11-05T23:14:18.726Z,100752.40
2022-11-05T23:17:11.782Z,100755.60
2022-11-05T23:20:04.987Z,100758.00
2022-11-05T23:22:59.127Z,100762.00
2022-11-05T23:25:34.611Z,100760.60
2022-11-05T23:28:14.757Z,100754.40
2022-11-05T23:31:14.033Z,100750.80
2022-11-05T23:33:50.181Z,100754.80
2022-11-05T23:36:42.989Z,100756.00
2022-11-05T23:39:19.593Z,100760.80
2022-11-05T23:42:12.282Z,100765.40
2022-11-05T23:45:05.242Z,100768.20
2022-11-05T23:47:58.534Z,100771.60
2022-11-05T23:50:39.510Z,100766.40
2022-11-05T23:53:16.569Z,100764.00
2022-11-05T23:55:52.910Z,100765.40
2022-11-05T23:58:29.155Z,100765.20
